DFOO/BOY METAR and TAF weather

Enter ICAO airport designator
Station Type Date Time Source
DFOO METAR 2019/04/24 22:00 UTC NOAA

DFOO 242200Z 00000KT CAVOK 27/22 Q1014


Station Type Date Time Source
DFOO Decoded METAR 2019/04/24 22:00 UTC NOAA

Bobo-Dioulasso, Burkina Faso (DFOO) 11-10N 004-19W 460M
Apr 24, 2019 - 06:00 PM EDT / 2019.04.24 2200 UTC
Wind: Calm:0
Visibility: greater than 7 mile(s):0
Temperature: 80 F (27 C)
Dew Point: 71 F (22 C)
Relative Humidity: 74%
Pressure (altimeter): 29.94 in. Hg (1014 hPa)
ob: DFOO 242200Z 00000KT CAVOK 27/22 Q1014
cycle: 22

Station Type Date Time Source
DFOO TAF 2019/04/24 18:39 UTC NOAA

TAF DFOO 241700Z 2418/2518 18008KT 9999 FEW020
TEMPO 2418/2502 4000 TSRA SCT020 FEW036CB

Example: see airport list